Time;durP1;ratioP1;P1;durP2;ratioP2;P2;SDS_P1;SDS_P2;PMS_P1;PMS_P2;Temp;Humidity;BMP_temperature;BMP_pressure;BME280_temperature;BME280_humidity;BME280_pressure;Samples;Min_cycle;Max_cycle;Signal;HPM_P1;HPM_P2
2023/07/24 00:00:05;;;;;;;6.38;2.28;;;;;;;20.63;100.00;95630.00;5077913;28;20310;-68
2023/07/24 00:02:32;;;;;;;5.85;1.90;;;;;;;20.45;100.00;95636.50;5078453;28;20231;-68
2023/07/24 00:04:58;;;;;;;3.67;2.03;;;;;;;20.50;100.00;95638.44;5078570;28;20196;-68
2023/07/24 00:07:26;;;;;;;4.60;2.17;;;;;;;20.70;100.00;95641.31;5077769;28;20210;-68
2023/07/24 00:09:53;;;;;;;3.95;2.05;;;;;;;20.51;100.00;95643.53;5078053;28;20231;-68
2023/07/24 00:12:19;;;;;;;5.63;2.60;;;;;;;20.56;100.00;95629.41;5078407;28;20207;-68
2023/07/24 00:14:46;;;;;;;10.27;3.67;;;;;;;20.44;100.00;95634.06;5078050;28;20207;-68
2023/07/24 00:17:12;;;;;;;6.45;2.25;;;;;;;20.57;100.00;95626.47;5077702;28;20204;-68
2023/07/24 00:19:39;;;;;;;5.88;1.67;;;;;;;20.78;100.00;95630.19;5078148;28;20200;-68
2023/07/24 00:22:06;;;;;;;4.95;1.80;;;;;;;20.81;100.00;95635.81;5077798;28;20215;-68
2023/07/24 00:24:34;;;;;;;5.18;2.22;;;;;;;20.98;100.00;95649.91;5077955;28;20218;-68
2023/07/24 00:27:01;;;;;;;5.38;1.55;;;;;;;20.68;100.00;95635.41;5076617;28;20318;-68
2023/07/24 00:29:28;;;;;;;3.75;1.83;;;;;;;20.54;100.00;95652.94;5077502;28;20662;-68
2023/07/24 00:31:54;;;;;;;4.32;2.15;;;;;;;20.87;100.00;95641.00;5078529;28;20214;-68
2023/07/24 00:34:21;;;;;;;8.55;2.80;;;;;;;21.04;100.00;95644.34;5077425;28;20204;-68
2023/07/24 00:36:48;;;;;;;2.55;1.42;;;;;;;21.15;100.00;95639.88;5077525;28;20222;-68
2023/07/24 00:39:15;;;;;;;4.47;2.17;;;;;;;21.20;100.00;95638.03;5077089;28;20211;-68
2023/07/24 00:41:43;;;;;;;4.90;1.98;;;;;;;21.34;100.00;95631.16;5077320;28;20234;-68
2023/07/24 00:44:10;;;;;;;6.57;2.30;;;;;;;21.13;100.00;95623.22;5077718;28;20214;-68
2023/07/24 00:46:36;;;;;;;4.22;2.08;;;;;;;21.11;100.00;95628.06;5077180;28;20204;-68
2023/07/24 00:49:05;;;;;;;5.22;2.40;;;;;;;21.07;100.00;95619.72;5076822;28;20204;-68
2023/07/24 00:51:32;;;;;;;6.32;2.42;;;;;;;20.70;100.00;95626.06;5077247;28;20220;-68
2023/07/24 00:54:01;;;;;;;4.88;2.50;;;;;;;20.67;100.00;95626.56;5077748;28;20196;-68
2023/07/24 00:56:28;;;;;;;6.18;2.58;;;;;;;20.75;100.00;95623.47;5077754;28;20203;-68
2023/07/24 00:58:57;;;;;;;6.63;2.45;;;;;;;20.91;100.00;95619.84;5076539;28;20199;-68
2023/07/24 01:01:24;;;;;;;13.68;1.90;;;;;;;20.76;100.00;95622.41;5077174;28;20782;-68
2023/07/24 01:03:50;;;;;;;5.60;2.47;;;;;;;21.02;100.00;95614.31;5077375;28;20200;-68
2023/07/24 01:06:17;;;;;;;5.90;2.20;;;;;;;20.59;100.00;95600.22;5076860;28;20208;-68
2023/07/24 01:08:43;;;;;;;6.55;2.38;;;;;;;20.35;100.00;95600.81;5076379;28;20207;-68
2023/07/24 01:11:15;;;;;;;5.82;2.28;;;;;;;20.73;100.00;95590.75;5077409;28;20626;-68
2023/07/24 01:13:48;;;;;;;5.78;2.13;;;;;;;20.67;100.00;95598.97;5077236;28;20546;-68
2023/07/24 01:16:19;;;;;;;3.55;1.73;;;;;;;20.50;100.00;95603.63;5077541;28;20227;-68
2023/07/24 01:18:47;;;;;;;4.57;2.08;;;;;;;20.14;100.00;95627.56;5076410;28;20204;-68
2023/07/24 01:21:18;;;;;;;8.50;2.83;;;;;;;20.45;100.00;95641.06;5076788;28;20306;-68
2023/07/24 01:23:56;;;;;;;5.50;1.90;;;;;;;20.74;100.00;95651.28;5076855;28;20206;-68
2023/07/24 01:26:24;;;;;;;5.75;2.33;;;;;;;20.50;100.00;95657.16;5077348;28;20211;-68
2023/07/24 01:28:51;;;;;;;4.90;2.60;;;;;;;20.28;100.00;95659.06;5076419;28;20344;-68
2023/07/24 01:31:17;;;;;;;7.32;2.50;;;;;;;20.24;100.00;95613.28;5076595;28;20272;-68
2023/07/24 01:33:45;;;;;;;5.30;2.15;;;;;;;20.43;100.00;95592.31;5077035;28;21007;-68
2023/07/24 01:36:14;;;;;;;5.72;2.05;;;;;;;20.58;100.00;95579.06;5077107;28;20208;-68
2023/07/24 01:38:41;;;;;;;5.55;1.63;;;;;;;19.85;100.00;95552.06;5075599;28;20199;-68
2023/07/24 01:41:08;;;;;;;5.70;2.50;;;;;;;20.08;100.00;95567.88;5077047;28;20224;-68
2023/07/24 01:43:36;;;;;;;4.75;2.10;;;;;;;20.43;100.00;95581.59;5076949;28;20230;-68
2023/07/24 01:46:02;;;;;;;8.93;2.88;;;;;;;20.36;100.00;95576.47;5075530;28;20911;-68
2023/07/24 01:48:29;;;;;;;4.00;2.08;;;;;;;20.14;100.00;95566.88;5075899;28;20218;-68
2023/07/24 01:50:55;;;;;;;7.25;2.35;;;;;;;20.12;100.00;95562.84;5076657;28;20699;-68
2023/07/24 01:53:22;;;;;;;4.40;2.05;;;;;;;20.35;100.00;95566.00;5076727;28;20211;-68
2023/07/24 01:55:48;;;;;;;4.28;2.08;;;;;;;20.45;100.00;95550.06;5076564;28;20691;-68
2023/07/24 01:58:15;;;;;;;4.03;2.00;;;;;;;20.68;100.00;95547.03;5075870;28;20200;-68
2023/07/24 02:00:43;;;;;;;7.18;2.78;;;;;;;20.72;100.00;95545.47;5076343;28;20224;-68
2023/07/24 02:03:09;;;;;;;7.95;1.85;;;;;;;20.51;100.00;95541.81;5076690;28;20219;-68
2023/07/24 02:05:36;;;;;;;6.28;2.05;;;;;;;20.38;100.00;95552.13;5076204;28;20200;-68
2023/07/24 02:08:02;;;;;;;4.85;1.77;;;;;;;20.41;100.00;95554.31;5075834;28;20583;-68
2023/07/24 02:10:29;;;;;;;6.53;2.28;;;;;;;20.38;100.00;95560.97;5076469;28;20296;-68
2023/07/24 02:12:55;;;;;;;5.50;2.28;;;;;;;20.87;100.00;95598.13;5076402;28;20192;-68
2023/07/24 02:15:22;;;;;;;4.28;2.00;;;;;;;20.72;100.00;95649.91;5075828;28;20208;-68
2023/07/24 02:17:50;;;;;;;7.78;2.97;;;;;;;20.86;100.00;95738.47;5075097;28;20850;-68
2023/07/24 02:20:16;;;;;;;5.15;2.00;;;;;;;20.40;100.00;95882.72;5076493;28;20224;-68
2023/07/24 02:22:43;;;;;;;5.47;2.10;;;;;;;19.64;100.00;95865.66;5076622;28;20224;-68
2023/07/24 02:25:09;;;;;;;7.18;3.25;;;;;;;19.88;100.00;95770.88;5076159;28;20207;-68
2023/07/24 02:27:36;;;;;;;6.70;2.55;;;;;;;20.15;100.00;95712.97;5075426;28;21008;-68
2023/07/24 02:30:03;;;;;;;11.38;3.05;;;;;;;20.15;100.00;95643.41;5075280;28;20603;-68
2023/07/24 02:32:30;;;;;;;10.82;2.35;;;;;;;19.68;100.00;95551.34;5076078;28;20200;-68
2023/07/24 02:34:58;;;;;;;5.82;2.50;;;;;;;19.23;100.00;95442.28;5076616;28;20229;-68
2023/07/24 02:37:24;;;;;;;8.30;3.10;;;;;;;19.38;100.00;95515.41;5076230;28;20203;-68
2023/07/24 02:39:52;;;;;;;9.00;3.45;;;;;;;19.80;100.00;95511.91;5076663;28;20734;-68
2023/07/24 02:42:19;;;;;;;7.57;2.88;;;;;;;19.58;100.00;95564.56;5075858;28;20246;-69
2023/07/24 02:44:45;;;;;;;6.00;2.15;;;;;;;18.99;100.00;95606.41;5076797;28;20207;-68
2023/07/24 02:47:11;;;;;;;9.82;3.22;;;;;;;19.47;100.00;95575.38;5076436;28;20210;-68
2023/07/24 02:49:38;;;;;;;6.30;2.88;;;;;;;19.59;100.00;95606.28;5074502;28;20204;-69
2023/07/24 02:52:06;;;;;;;9.55;3.33;;;;;;;19.70;100.00;95604.56;5077084;28;20199;-68
2023/07/24 02:54:33;;;;;;;7.32;2.83;;;;;;;19.46;100.00;95600.47;5076696;28;20208;-69
2023/07/24 02:56:59;;;;;;;7.05;2.83;;;;;;;19.71;100.00;95593.59;5073687;28;20575;-68
2023/07/24 02:59:26;;;;;;;8.43;2.88;;;;;;;19.65;100.00;95581.25;5077821;28;20215;-69
2023/07/24 03:01:52;;;;;;;7.05;2.95;;;;;;;19.58;100.00;95585.16;5078329;28;20208;-68
2023/07/24 03:04:19;;;;;;;8.32;3.13;;;;;;;19.48;100.00;95594.91;5077937;28;20200;-69
2023/07/24 03:06:46;;;;;;;9.80;3.55;;;;;;;19.69;100.00;95593.06;5077723;28;20236;-69
2023/07/24 03:09:14;;;;;;;8.40;3.55;;;;;;;19.92;100.00;95610.75;5076806;28;20214;-69
2023/07/24 03:11:40;;;;;;;8.48;2.92;;;;;;;19.82;100.00;95610.59;5077500;28;20224;-68
2023/07/24 03:14:07;;;;;;;11.48;3.20;;;;;;;19.81;100.00;95582.25;5077548;28;20204;-69
2023/07/24 03:16:32;;;;;;;7.97;4.25;;;;;;;19.81;100.00;95561.66;5077766;28;20320;-69
2023/07/24 03:18:59;;;;;;;11.13;4.03;;;;;;;19.68;100.00;95546.00;5076804;28;20890;-68
2023/07/24 03:21:25;;;;;;;9.07;3.35;;;;;;;19.83;100.00;95543.50;5077777;28;20228;-69
2023/07/24 03:23:52;;;;;;;9.18;3.85;;;;;;;19.71;100.00;95534.78;5079281;28;20224;-68
2023/07/24 03:26:19;;;;;;;10.50;3.75;;;;;;;20.03;100.00;95540.28;5079432;28;20206;-69
2023/07/24 03:28:46;;;;;;;20.35;3.88;;;;;;;19.57;100.00;95544.22;5078193;28;20207;-68
2023/07/24 03:31:12;;;;;;;8.75;2.85;;;;;;;19.77;100.00;95539.16;5078364;28;20707;-68
2023/07/24 03:33:39;;;;;;;5.75;2.22;;;;;;;19.71;100.00;95529.44;5079034;28;20200;-68
2023/07/24 03:36:05;;;;;;;10.25;3.58;;;;;;;19.55;100.00;95552.75;5078839;28;20242;-67
2023/07/24 03:38:32;;;;;;;8.00;3.10;;;;;;;19.57;100.00;95554.94;5077896;28;20207;-67
2023/07/24 03:40:58;;;;;;;4.72;2.25;;;;;;;19.60;100.00;95553.63;5078592;28;20241;-67
2023/07/24 03:43:26;;;;;;;8.35;3.17;;;;;;;19.68;100.00;95562.03;5078484;28;20228;-67
2023/07/24 03:45:53;;;;;;;7.68;2.92;;;;;;;19.55;100.00;95561.56;5078235;28;20216;-67
2023/07/24 03:48:19;;;;;;;5.85;2.33;;;;;;;19.49;100.00;95556.41;5078242;28;20583;-67
2023/07/24 03:50:46;;;;;;;14.35;3.60;;;;;;;19.47;100.00;95555.88;5077973;28;20220;-67
2023/07/24 03:53:12;;;;;;;4.63;2.58;;;;;;;19.57;100.00;95558.69;5078343;28;20200;-68
2023/07/24 03:55:39;;;;;;;5.50;2.95;;;;;;;19.36;100.00;95572.81;5078869;28;20664;-67
2023/07/24 03:58:05;;;;;;;8.82;3.78;;;;;;;19.40;100.00;95568.59;5077970;28;20219;-68
2023/07/24 04:00:33;;;;;;;8.00;3.28;;;;;;;19.64;100.00;95546.75;5077813;28;20234;-67
2023/07/24 04:03:00;;;;;;;5.85;2.17;;;;;;;19.38;100.00;95544.00;5077854;28;20215;-68
2023/07/24 04:05:27;;;;;;;5.75;2.60;;;;;;;19.41;100.00;95548.84;5078707;28;20766;-67
2023/07/24 04:07:53;;;;;;;7.82;3.22;;;;;;;19.54;100.00;95524.41;5076989;28;20203;-67
2023/07/24 04:10:20;;;;;;;9.23;3.30;;;;;;;19.38;100.00;95514.59;5077687;28;20615;-68
2023/07/24 04:12:46;;;;;;;10.13;2.58;;;;;;;19.32;100.00;95518.25;5078589;28;20202;-67
2023/07/24 04:15:13;;;;;;;7.03;2.65;;;;;;;19.46;100.00;95512.28;5078119;28;20223;-68
2023/07/24 04:17:41;;;;;;;4.88;2.33;;;;;;;19.12;100.00;95534.03;5076856;28;20687;-68
2023/07/24 04:20:09;;;;;;;7.60;2.78;;;;;;;19.51;100.00;95525.72;5078355;28;20227;-68
2023/07/24 04:22:36;;;;;;;9.20;2.95;;;;;;;19.42;100.00;95524.53;5078098;28;20208;-68
2023/07/24 04:25:02;;;;;;;7.70;2.67;;;;;;;19.69;100.00;95526.22;5077664;28;20211;-68
2023/07/24 04:27:29;;;;;;;4.72;2.55;;;;;;;19.94;100.00;95513.16;5077682;28;20199;-68
2023/07/24 04:29:55;;;;;;;9.05;2.47;;;;;;;19.99;100.00;95521.22;5077705;28;21006;-68
2023/07/24 04:32:22;;;;;;;7.15;2.63;;;;;;;20.09;100.00;95516.00;5077232;28;20207;-68
2023/07/24 04:34:50;;;;;;;7.28;2.35;;;;;;;20.25;100.00;95507.03;5077546;28;20250;-68
2023/07/24 04:37:16;;;;;;;6.68;2.38;;;;;;;20.07;100.00;95498.56;5076931;28;20204;-68
2023/07/24 04:39:43;;;;;;;4.57;2.17;;;;;;;20.06;100.00;95513.00;5077301;28;20208;-69
2023/07/24 04:42:10;;;;;;;4.65;2.03;;;;;;;20.06;100.00;95508.47;5077602;28;20202;-68
2023/07/24 04:44:36;;;;;;;10.23;3.20;;;;;;;20.00;100.00;95501.47;5077628;28;20227;-68
2023/07/24 04:47:03;;;;;;;8.32;3.08;;;;;;;20.17;100.00;95494.13;5077298;28;20767;-68
2023/07/24 04:49:30;;;;;;;7.20;2.63;;;;;;;20.21;100.00;95504.09;5077401;28;20223;-68
2023/07/24 04:51:58;;;;;;;5.18;2.55;;;;;;;20.53;100.00;95509.44;5077557;28;20200;-68
2023/07/24 04:54:25;;;;;;;9.55;3.08;;;;;;;20.40;100.00;95507.19;5077793;28;20207;-68
2023/07/24 04:56:51;;;;;;;6.55;2.70;;;;;;;20.50;100.00;95502.72;5076957;28;20204;-68
2023/07/24 04:59:18;;;;;;;5.65;2.53;;;;;;;20.33;100.00;95496.69;5076251;28;20204;-68
2023/07/24 05:01:44;;;;;;;13.15;2.03;;;;;;;20.26;100.00;95506.81;5077512;28;20240;-68
2023/07/24 05:04:11;;;;;;;7.82;2.47;;;;;;;20.45;100.00;95504.56;5077326;28;20220;-68
2023/07/24 05:06:38;;;;;;;5.30;2.75;;;;;;;20.49;100.00;95494.94;5077182;28;20204;-68
2023/07/24 05:09:06;;;;;;;5.63;2.53;;;;;;;20.69;100.00;95492.44;5077086;28;20762;-69
2023/07/24 05:11:32;;;;;;;6.60;2.83;;;;;;;20.52;100.00;95499.78;5076979;28;20223;-68
2023/07/24 05:13:59;;;;;;;7.82;2.78;;;;;;;20.46;100.00;95498.16;5076570;28;20651;-68
2023/07/24 05:16:25;;;;;;;6.30;2.90;;;;;;;20.52;100.00;95497.09;5077426;28;20207;-68
2023/07/24 05:18:52;;;;;;;8.07;3.25;;;;;;;20.66;100.00;95500.97;5076699;28;20210;-68
2023/07/24 05:21:18;;;;;;;6.25;2.78;;;;;;;20.77;100.00;95489.31;5075528;28;20234;-68
2023/07/24 05:23:45;;;;;;;8.35;2.72;;;;;;;20.93;100.00;95486.47;5076855;28;20223;-68
2023/07/24 05:26:13;;;;;;;8.82;2.92;;;;;;;21.10;100.00;95482.53;5077439;28;20671;-68
2023/07/24 05:28:39;;;;;;;7.28;3.10;;;;;;;20.90;100.00;95485.13;5075633;28;20204;-68
2023/07/24 05:31:07;;;;;;;11.68;3.63;;;;;;;21.28;100.00;95479.41;5076319;28;20230;-68
2023/07/24 05:33:34;;;;;;;8.82;3.35;;;;;;;21.26;100.00;95480.78;5076904;28;20204;-68
2023/07/24 05:36:02;;;;;;;14.25;3.50;;;;;;;21.16;100.00;95481.50;5076105;28;20285;-68
2023/07/24 05:38:29;;;;;;;8.05;3.33;;;;;;;21.38;100.00;95476.78;5075023;28;20664;-68
2023/07/24 05:40:56;;;;;;;15.82;3.28;;;;;;;21.32;100.00;95477.03;5075527;28;21345;-68
2023/07/24 05:43:24;;;;;;;9.07;3.40;;;;;;;21.47;100.00;95461.81;5076097;28;20235;-68
2023/07/24 05:45:51;;;;;;;10.07;3.13;;;;;;;21.19;100.00;95459.53;5075779;28;20199;-68
2023/07/24 05:48:18;;;;;;;11.27;3.40;;;;;;;21.33;100.00;95471.41;5075477;28;20211;-68
2023/07/24 05:50:44;;;;;;;9.50;3.17;;;;;;;21.65;100.00;95461.38;5075819;28;20379;-68
2023/07/24 05:53:11;;;;;;;6.80;3.28;;;;;;;21.74;100.00;95468.66;5076065;28;20207;-68
2023/07/24 05:55:37;;;;;;;6.32;2.45;;;;;;;21.84;100.00;95457.97;5075991;28;20667;-68
2023/07/24 05:58:04;;;;;;;7.05;2.80;;;;;;;21.95;100.00;95467.63;5075593;28;20204;-68
2023/07/24 06:00:32;;;;;;;7.65;2.90;;;;;;;22.16;100.00;95478.13;5074213;28;20220;-68
2023/07/24 06:02:58;;;;;;;7.95;2.92;;;;;;;21.92;100.00;95502.22;5076076;28;20365;-69
2023/07/24 06:05:25;;;;;;;10.65;3.90;;;;;;;21.74;100.00;95532.22;5076434;28;20218;-68
2023/07/24 06:07:51;;;;;;;10.27;3.75;;;;;;;21.26;100.00;95548.56;5075488;28;20848;-68
2023/07/24 06:10:18;;;;;;;7.30;2.83;;;;;;;21.34;100.00;95561.47;5076536;28;20227;-68
2023/07/24 06:12:44;;;;;;;6.63;3.70;;;;;;;21.07;100.00;95584.88;5077528;28;20207;-67
2023/07/24 06:15:11;;;;;;;7.55;3.20;;;;;;;20.82;100.00;95596.47;5076976;28;20210;-68
2023/07/24 06:17:39;;;;;;;13.35;2.55;;;;;;;21.00;100.00;95600.38;5076509;28;20219;-68
2023/07/24 06:20:07;;;;;;;6.38;2.33;;;;;;;20.96;100.00;95615.34;5077762;28;20268;-68
2023/07/24 06:22:34;;;;;;;8.35;3.60;;;;;;;20.59;100.00;95610.16;5074995;28;20335;-68
2023/07/24 06:25:00;;;;;;;6.35;2.95;;;;;;;20.79;100.00;95626.44;5075728;28;20258;-68
2023/07/24 06:27:27;;;;;;;8.43;2.90;;;;;;;20.77;100.00;95621.31;5076649;28;20215;-68
2023/07/24 06:29:53;;;;;;;8.23;2.97;;;;;;;20.93;100.00;95617.72;5076445;28;20235;-68
2023/07/24 06:32:20;;;;;;;8.80;3.05;;;;;;;20.95;100.00;95624.44;5076798;28;20208;-68
2023/07/24 06:34:48;;;;;;;9.93;3.80;;;;;;;21.02;100.00;95635.75;5079984;28;20211;-68
2023/07/24 06:37:14;;;;;;;11.07;3.53;;;;;;;20.98;100.00;95629.28;5079915;28;20405;-68
2023/07/24 06:39:41;;;;;;;9.50;3.53;;;;;;;21.03;100.00;95613.25;5079453;28;21172;-67
2023/07/24 06:42:07;;;;;;;9.50;3.75;;;;;;;20.70;100.00;95615.34;5080966;28;20207;-68
2023/07/24 06:44:34;;;;;;;9.02;3.85;;;;;;;20.79;100.00;95602.34;5079138;28;20230;-68
2023/07/24 06:47:00;;;;;;;9.43;4.00;;;;;;;20.77;100.00;95593.75;5078694;28;20222;-68
2023/07/24 06:49:27;;;;;;;5.88;2.53;;;;;;;20.82;100.00;95591.13;5079586;28;20222;-68
2023/07/24 06:51:54;;;;;;;9.07;3.45;;;;;;;21.01;100.00;95580.53;5079625;28;20217;-68
2023/07/24 06:54:21;;;;;;;16.05;3.95;;;;;;;20.88;100.00;95583.66;5079580;28;20210;-67
2023/07/24 06:56:47;;;;;;;6.20;3.05;;;;;;;20.72;100.00;95585.63;5079309;28;20755;-68
2023/07/24 06:59:14;;;;;;;6.43;2.85;;;;;;;20.62;100.00;95577.50;5078665;28;20203;-67
2023/07/24 07:01:40;;;;;;;7.82;2.45;;;;;;;20.62;100.00;95570.31;5079559;28;20711;-68
2023/07/24 07:04:07;;;;;;;4.03;2.25;;;;;;;20.80;100.00;95561.91;5078836;28;20227;-68
2023/07/24 07:06:33;;;;;;;4.50;2.58;;;;;;;20.84;100.00;95560.34;5079122;28;20804;-67
2023/07/24 07:09:01;;;;;;;4.07;1.52;;;;;;;20.79;100.00;95543.44;5078757;28;20198;-68
2023/07/24 07:11:28;;;;;;;5.20;1.80;;;;;;;20.70;100.00;95540.38;5079603;28;20243;-68
2023/07/24 07:13:54;;;;;;;6.18;2.30;;;;;;;20.74;100.00;95527.31;5078997;28;20203;-68
2023/07/24 07:16:21;;;;;;;5.72;2.13;;;;;;;20.67;100.00;95534.72;5079342;28;20214;-68
2023/07/24 07:18:47;;;;;;;5.93;1.45;;;;;;;20.44;100.00;95572.53;5078230;28;20203;-68
2023/07/24 07:21:14;;;;;;;5.32;2.03;;;;;;;20.53;100.00;95529.00;5079138;28;20228;-68
2023/07/24 07:23:40;;;;;;;5.07;2.38;;;;;;;20.91;100.00;95521.56;5078786;28;20219;-67
2023/07/24 07:26:08;;;;;;;3.80;1.48;;;;;;;21.24;100.00;95531.94;5079579;28;20203;-67
2023/07/24 07:28:35;;;;;;;9.00;1.63;;;;;;;20.99;100.00;95521.06;5078268;28;20200;-67
2023/07/24 07:31:01;;;;;;;3.42;1.75;;;;;;;21.08;100.00;95521.41;5079707;28;20231;-68
2023/07/24 07:33:29;;;;;;;3.65;1.65;;;;;;;21.30;100.00;95525.53;5078831;28;20655;-68
2023/07/24 07:35:55;;;;;;;5.10;2.05;;;;;;;21.09;100.00;95539.91;5078857;28;20227;-68
2023/07/24 07:38:22;;;;;;;6.47;1.98;;;;;;;21.14;100.00;95547.16;5078729;28;20199;-68
2023/07/24 07:40:49;;;;;;;5.40;1.50;;;;;;;21.06;100.00;95564.50;5079630;28;20289;-68
2023/07/24 07:43:17;;;;;;;3.65;2.55;;;;;;;21.43;100.00;95571.47;5078994;28;20211;-68
2023/07/24 07:45:44;;;;;;;4.05;1.90;;;;;;;21.11;100.00;95596.69;5078270;28;20755;-68
2023/07/24 07:48:10;;;;;;;7.18;1.77;;;;;;;21.11;100.00;95585.97;5078033;28;20215;-67
2023/07/24 07:50:37;;;;;;;4.45;1.70;;;;;;;21.11;100.00;95585.97;5078813;28;20235;-67
2023/07/24 07:53:03;;;;;;;4.45;1.70;;;;;;;21.05;100.00;95568.28;5076892;28;20200;-68
2023/07/24 07:55:30;;;;;;;4.53;1.70;;;;;;;21.31;100.00;95563.84;5078918;28;20192;-67
2023/07/24 07:57:56;;;;;;;4.88;1.50;;;;;;;21.80;100.00;95566.03;5079224;28;20200;-67
2023/07/24 08:00:24;;;;;;;5.57;1.98;;;;;;;22.15;100.00;95575.81;5078993;28;20253;-67
2023/07/24 08:02:51;;;;;;;5.38;2.10;;;;;;;21.96;100.00;95594.53;5079184;28;20210;-67
2023/07/24 08:05:17;;;;;;;4.82;1.77;;;;;;;22.16;100.00;95593.53;5079254;28;20222;-68
2023/07/24 08:07:44;;;;;;;4.72;1.70;;;;;;;22.17;100.00;95603.22;5078485;28;20206;-67
2023/07/24 08:10:10;;;;;;;4.38;1.92;;;;;;;22.46;100.00;95582.13;5079840;28;20227;-68
2023/07/24 08:12:37;;;;;;;3.47;1.45;;;;;;;22.57;100.00;95586.41;5079338;28;20219;-68
2023/07/24 08:15:04;;;;;;;7.05;1.80;;;;;;;22.39;100.00;95579.69;5079960;28;20214;-68
2023/07/24 08:17:32;;;;;;;5.70;1.70;;;;;;;22.59;100.00;95587.75;5078049;28;20204;-68
2023/07/24 08:19:58;;;;;;;2.72;1.48;;;;;;;22.61;100.00;95574.88;5079735;28;20721;-68
2023/07/24 08:22:25;;;;;;;6.03;1.58;;;;;;;22.46;100.00;95585.59;5078810;28;20286;-68
2023/07/24 08:24:52;;;;;;;7.10;1.60;;;;;;;22.20;100.00;95597.31;5079124;28;20261;-68
2023/07/24 08:27:18;;;;;;;3.45;1.45;;;;;;;22.42;100.00;95573.78;5078455;28;20207;-68
2023/07/24 08:29:45;;;;;;;3.92;1.80;;;;;;;22.72;100.00;95573.81;5078936;28;20204;-68
2023/07/24 08:32:11;;;;;;;6.20;1.60;;;;;;;22.48;100.00;95569.22;5078492;28;20207;-68
2023/07/24 08:34:39;;;;;;;2.58;1.45;;;;;;;23.29;100.00;95566.31;5078786;28;21030;-68
2023/07/24 08:37:06;;;;;;;3.03;1.10;;;;;;;23.14;100.00;95571.69;5078536;28;20215;-68
2023/07/24 08:39:33;;;;;;;4.03;1.75;;;;;;;23.14;100.00;95559.06;5079249;28;20203;-68
2023/07/24 08:41:59;;;;;;;6.95;2.08;;;;;;;23.07;100.00;95557.72;5078070;28;21097;-68
2023/07/24 08:44:30;;;;;;;3.63;1.77;;;;;;;23.63;100.00;95542.00;5079744;28;20220;-68
2023/07/24 08:46:58;;;;;;;1.60;1.13;;;;;;;23.45;100.00;95536.44;5076944;28;20663;-68
2023/07/24 08:49:25;;;;;;;3.70;1.20;;;;;;;23.12;100.00;95538.91;5078462;28;20200;-68
2023/07/24 08:51:54;;;;;;;1.85;1.13;;;;;;;23.41;100.00;95540.75;5077431;28;20509;-68
2023/07/24 08:54:21;;;;;;;4.07;1.92;;;;;;;23.97;100.00;95545.69;5078151;28;20199;-68
2023/07/24 08:56:50;;;;;;;5.22;1.95;;;;;;;23.86;100.00;95535.25;5076748;28;20932;-68
2023/07/24 08:59:16;;;;;;;3.83;1.77;;;;;;;24.14;100.00;95532.69;5077079;28;20204;-68
2023/07/24 09:01:43;;;;;;;1.75;0.93;;;;;;;24.23;100.00;95533.69;5076824;28;20227;-68
2023/07/24 09:04:10;;;;;;;1.35;1.13;;;;;;;23.88;100.00;95533.88;5077565;28;20692;-68
2023/07/24 09:06:38;;;;;;;5.93;1.60;;;;;;;23.85;100.00;95520.97;5077864;28;20205;-68
2023/07/24 09:09:13;;;;;;;3.78;1.38;;;;;;;23.98;100.00;95531.13;5077337;28;20835;-68
2023/07/24 09:11:46;;;;;;;1.90;1.05;;;;;;;23.93;100.00;95528.50;5077697;28;20218;-68
2023/07/24 09:14:21;;;;;;;2.25;1.00;;;;;;;24.08;100.00;95510.38;5077672;28;20215;-68
2023/07/24 09:16:47;;;;;;;4.65;1.33;;;;;;;24.21;100.00;95503.53;5077023;28;20214;-68
2023/07/24 09:19:18;;;;;;;2.50;1.02;;;;;;;24.73;100.00;95497.28;5077115;28;20550;-68
2023/07/24 09:21:45;;;;;;;3.35;1.83;;;;;;;24.62;100.00;95495.75;5076682;28;20734;-68
2023/07/24 09:24:15;;;;;;;3.30;1.17;;;;;;;25.03;100.00;95488.91;5077616;28;20207;-68
2023/07/24 09:26:49;;;;;;;4.13;1.58;;;;;;;24.98;100.00;95488.16;5077895;28;20200;-68
2023/07/24 09:29:15;;;;;;;2.05;1.05;;;;;;;24.54;100.00;95492.84;5077189;28;20555;-68
2023/07/24 09:31:43;;;;;;;3.53;0.90;;;;;;;24.20;100.00;95488.50;5076900;28;20224;-68
2023/07/24 09:34:15;;;;;;;2.67;1.15;;;;;;;24.63;100.00;95491.16;5076475;28;20286;-68
2023/07/24 09:36:42;;;;;;;3.22;1.42;;;;;;;24.01;100.00;95493.69;5077490;28;20226;-68
2023/07/24 09:39:11;;;;;;;4.18;1.30;;;;;;;24.31;100.00;95496.22;5076621;28;20208;-68
2023/07/24 09:41:39;;;;;;;5.07;1.20;;;;;;;24.37;100.00;95487.00;5077518;28;20223;-68
2023/07/24 09:44:06;;;;;;;2.50;1.20;;;;;;;24.01;100.00;95488.31;5076871;28;20619;-68
2023/07/24 09:46:33;;;;;;;3.17;1.20;;;;;;;24.02;100.00;95491.84;5077308;28;20212;-68
2023/07/24 09:49:00;;;;;;;2.47;1.40;;;;;;;23.79;100.00;95489.78;5076392;28;20195;-68
2023/07/24 09:51:29;;;;;;;3.88;1.55;;;;;;;23.75;100.00;95471.78;5078030;28;20232;-68
2023/07/24 09:53:59;;;;;;;4.13;1.33;;;;;;;23.87;100.00;95478.44;5076957;28;20204;-68
2023/07/24 09:56:26;;;;;;;5.38;1.50;;;;;;;23.84;100.00;95470.13;5078272;28;20249;-68
2023/07/24 09:58:55;;;;;;;2.47;1.23;;;;;;;23.98;100.00;95469.22;5075454;28;20214;-68
2023/07/24 10:01:23;;;;;;;2.53;1.20;;;;;;;24.07;100.00;95462.16;5075903;28;20226;-68
2023/07/24 10:03:51;;;;;;;3.88;1.45;;;;;;;24.17;100.00;95467.50;5075984;28;20204;-68
2023/07/24 10:06:18;;;;;;;3.17;1.42;;;;;;;24.45;100.00;95472.19;5077105;28;20237;-68
2023/07/24 10:08:45;;;;;;;2.95;1.35;;;;;;;24.80;100.00;95465.41;5079170;28;20204;-68
2023/07/24 10:11:13;;;;;;;3.75;1.67;;;;;;;24.66;100.00;95467.16;5080073;28;20250;-68
2023/07/24 10:13:41;;;;;;;3.28;1.58;;;;;;;25.04;100.00;95479.75;5081467;28;20706;-68
2023/07/24 10:16:10;;;;;;;2.75;1.15;;;;;;;25.37;98.44;95482.41;5080888;28;20202;-68
2023/07/24 10:18:44;;;;;;;4.22;1.17;;;;;;;25.20;99.81;95481.22;5080260;28;20204;-68
2023/07/24 10:21:12;;;;;;;5.05;1.52;;;;;;;24.88;98.57;95477.47;5081367;28;20311;-68
2023/07/24 10:23:42;;;;;;;5.35;1.40;;;;;;;25.05;99.10;95489.50;5079945;28;20207;-68
2023/07/24 10:26:09;;;;;;;5.22;1.60;;;;;;;25.08;100.00;95488.91;5079520;28;20227;-68
2023/07/24 10:28:38;;;;;;;3.97;1.60;;;;;;;24.85;98.58;95475.34;5079458;28;20207;-68
2023/07/24 10:31:08;;;;;;;7.40;1.50;;;;;;;25.07;98.09;95481.91;5080312;28;20238;-68
2023/07/24 10:33:44;;;;;;;4.15;1.38;;;;;;;25.24;95.37;95479.56;5080161;28;20326;-68
2023/07/24 10:36:13;;;;;;;4.35;1.00;;;;;;;25.12;94.81;95462.97;5080021;28;20203;-68
2023/07/24 10:38:42;;;;;;;3.92;1.35;;;;;;;25.44;94.13;95460.47;5079296;28;20767;-68
2023/07/24 10:41:11;;;;;;;2.92;1.25;;;;;;;25.74;94.49;95455.53;5079561;28;20234;-68
2023/07/24 10:43:42;;;;;;;2.75;1.40;;;;;;;25.95;91.87;95467.69;5080360;28;20204;-68
2023/07/24 10:46:08;;;;;;;2.22;1.30;;;;;;;25.65;94.44;95468.03;5080545;28;20259;-68
2023/07/24 10:48:37;;;;;;;3.05;1.20;;;;;;;26.11;92.90;95459.09;5079716;28;20207;-68
2023/07/24 10:51:08;;;;;;;3.97;1.90;;;;;;;25.68;92.35;95472.06;5080631;28;20230;-68
2023/07/24 10:53:36;;;;;;;5.28;1.55;;;;;;;25.70;92.34;95481.50;5080292;28;20204;-68
2023/07/24 10:56:03;;;;;;;3.67;2.08;;;;;;;25.38;92.53;95484.00;5080580;28;20196;-68
2023/07/24 10:58:29;;;;;;;2.05;1.45;;;;;;;25.39;95.50;95476.72;5079972;28;20199;-68
2023/07/24 11:00:57;;;;;;;3.00;1.20;;;;;;;25.85;93.15;95457.00;5081102;28;20219;-68
2023/07/24 11:03:24;;;;;;;3.45;1.45;;;;;;;26.14;92.00;95455.78;5081108;28;20663;-68
2023/07/24 11:05:53;;;;;;;2.63;1.48;;;;;;;26.45;91.96;95451.56;5079253;28;20564;-68
2023/07/24 11:08:21;;;;;;;2.92;1.40;;;;;;;26.05;90.19;95443.25;5078702;28;20207;-68
2023/07/24 11:10:49;;;;;;;3.50;1.77;;;;;;;25.93;88.02;95449.06;5080402;28;20668;-68
2023/07/24 11:13:15;;;;;;;7.35;1.33;;;;;;;25.51;90.83;95469.00;5081304;28;20222;-68
2023/07/24 11:15:42;;;;;;;2.75;1.38;;;;;;;25.13;96.45;95480.78;5080271;28;20195;-68
2023/07/24 11:18:08;;;;;;;2.78;1.48;;;;;;;24.63;93.79;95496.53;5079863;28;20235;-68
2023/07/24 11:20:38;;;;;;;3.28;1.73;;;;;;;24.63;94.78;95516.22;5080040;28;20285;-68
2023/07/24 11:23:06;;;;;;;4.30;2.17;;;;;;;24.44;98.34;95548.69;5078970;28;20290;-68